createdAt,value
2018-02-02T00:01:20.836Z,33.48
2018-02-02T00:03:51.082Z,31.87
2018-02-02T00:06:26.100Z,29.77
2018-02-02T00:08:55.330Z,35.30
2018-02-02T00:11:24.422Z,29.80
2018-02-02T00:13:54.168Z,32.20
2018-02-02T00:16:24.819Z,33.72
2018-02-02T00:18:55.219Z,31.90
2018-02-02T00:21:25.937Z,39.22
2018-02-02T00:23:56.087Z,32.50
2018-02-02T00:26:26.727Z,33.35
2018-02-02T00:28:57.307Z,33.15
2018-02-02T00:31:28.239Z,32.75
2018-02-02T00:33:59.119Z,32.75
2018-02-02T00:36:29.791Z,35.22
2018-02-02T00:39:00.310Z,34.55
2018-02-02T00:41:30.536Z,32.24
2018-02-02T00:44:00.963Z,38.37
2018-02-02T00:46:31.746Z,34.50
2018-02-02T00:49:02.456Z,35.45
2018-02-02T00:51:38.167Z,35.60
2018-02-02T00:54:07.407Z,33.40
2018-02-02T00:56:38.212Z,32.88
2018-02-02T00:59:08.832Z,32.72
2018-02-02T01:01:39.723Z,36.22
2018-02-02T01:04:10.536Z,35.05
2018-02-02T01:06:40.907Z,35.47
2018-02-02T01:09:11.730Z,34.90
2018-02-02T01:11:43.444Z,36.50
2018-02-02T01:14:13.904Z,32.90
2018-02-02T01:16:47.665Z,35.64
2018-02-02T01:19:16.933Z,37.63
2018-02-02T01:21:46.428Z,37.80
2018-02-02T01:24:16.182Z,35.30
2018-02-02T01:26:47.459Z,39.64
2018-02-02T01:29:19.035Z,36.50
2018-02-02T01:31:49.468Z,36.38
2018-02-02T01:34:19.911Z,36.63
2018-02-02T01:36:50.771Z,35.72
2018-02-02T01:39:21.674Z,40.17
2018-02-02T01:41:52.504Z,34.47
2018-02-02T01:44:24.022Z,37.22
2018-02-02T01:46:54.855Z,36.33
2018-02-02T01:49:25.787Z,34.92
2018-02-02T01:51:56.599Z,35.05
2018-02-02T01:54:27.927Z,36.00
2018-02-02T01:56:59.271Z,30.86
2018-02-02T01:59:29.878Z,32.80
2018-02-02T02:02:00.699Z,33.05
2018-02-02T02:04:31.708Z,37.38
2018-02-02T02:07:01.919Z,40.90
2018-02-02T02:09:32.850Z,45.20
2018-02-02T02:12:03.690Z,43.60
2018-02-02T02:14:34.661Z,38.75
2018-02-02T02:17:05.590Z,38.20
2018-02-02T02:19:36.887Z,37.06
2018-02-02T02:22:07.674Z,33.33
2018-02-02T02:24:38.927Z,32.55
2018-02-02T02:27:09.367Z,34.82
2018-02-02T02:29:39.942Z,32.33
2018-02-02T02:32:10.749Z,34.60
2018-02-02T02:34:41.627Z,35.85
2018-02-02T02:37:12.467Z,32.45
2018-02-02T02:39:43.840Z,35.54
2018-02-02T02:42:14.659Z,30.77
2018-02-02T02:44:45.640Z,33.03
2018-02-02T02:47:16.515Z,33.20
2018-02-02T02:49:47.891Z,28.82
2018-02-02T02:52:18.717Z,30.65
2018-02-02T02:54:49.643Z,25.83
2018-02-02T02:57:20.704Z,30.08
2018-02-02T02:59:51.642Z,33.55
2018-02-02T03:02:22.510Z,28.67
2018-02-02T03:04:52.948Z,28.12
2018-02-02T03:07:23.755Z,29.77
2018-02-02T03:09:54.673Z,26.15
2018-02-02T03:12:25.158Z,30.12
2018-02-02T03:14:58.479Z,26.55
2018-02-02T03:17:27.595Z,27.17
2018-02-02T03:19:58.030Z,28.90
2018-02-02T03:22:28.477Z,28.14
2018-02-02T03:24:58.325Z,27.83
2018-02-02T03:27:29.830Z,32.68
2018-02-02T03:30:00.762Z,29.50
2018-02-02T03:32:31.596Z,30.23
2018-02-02T03:35:02.354Z,30.88
2018-02-02T03:37:33.822Z,35.50
2018-02-02T03:40:04.103Z,41.30
2018-02-02T03:42:33.950Z,33.58
2018-02-02T03:45:04.883Z,30.96
2018-02-02T03:47:35.680Z,32.24
2018-02-02T03:50:07.134Z,33.96
2018-02-02T03:52:38.342Z,26.34
2018-02-02T03:55:09.866Z,29.80
2018-02-02T03:57:40.930Z,28.67
2018-02-02T04:00:11.867Z,29.83
2018-02-02T04:02:42.715Z,27.80
2018-02-02T04:05:13.603Z,27.95
2018-02-02T04:07:44.290Z,27.54
2018-02-02T04:10:16.275Z,23.96
2018-02-02T04:12:46.909Z,26.70
2018-02-02T04:15:17.767Z,28.92
2018-02-02T04:17:48.823Z,29.60
2018-02-02T04:20:18.638Z,27.73
2018-02-02T04:22:49.867Z,29.60
2018-02-02T04:25:20.747Z,26.33
2018-02-02T04:27:51.560Z,28.75
2018-02-02T04:30:22.840Z,25.70
2018-02-02T04:32:53.682Z,24.65
2018-02-02T04:35:30.698Z,27.20
2018-02-02T04:37:59.746Z,24.90
2018-02-02T04:40:28.806Z,25.27
2018-02-02T04:42:57.928Z,21.00
2018-02-02T04:45:28.369Z,26.24
2018-02-02T04:47:58.283Z,23.27
2018-02-02T04:50:28.855Z,24.52
2018-02-02T04:52:59.727Z,29.37
2018-02-02T04:55:31.019Z,20.20
2018-02-02T04:58:02.064Z,21.77
2018-02-02T05:00:32.894Z,20.33
2018-02-02T05:03:03.434Z,24.12
2018-02-02T05:05:33.875Z,22.33
2018-02-02T05:08:05.089Z,18.42
2018-02-02T05:10:35.451Z,20.78
2018-02-02T05:13:06.203Z,22.65
2018-02-02T05:15:36.764Z,20.52
2018-02-02T05:18:09.726Z,17.35
2018-02-02T05:20:39.314Z,20.45
2018-02-02T05:23:09.155Z,19.12
2018-02-02T05:25:39.827Z,21.70
2018-02-02T05:28:10.709Z,18.40
2018-02-02T05:30:41.515Z,19.77
2018-02-02T05:33:12.896Z,17.72
2018-02-02T05:35:43.331Z,16.00
2018-02-02T05:38:14.071Z,16.60
2018-02-02T05:40:44.875Z,19.42
2018-02-02T05:43:15.728Z,18.73
2018-02-02T05:45:46.524Z,18.77
2018-02-02T05:48:17.828Z,16.88
2018-02-02T05:50:48.327Z,18.00
2018-02-02T05:53:18.924Z,18.15
2018-02-02T05:55:49.465Z,21.65
2018-02-02T05:58:21.106Z,18.52
2018-02-02T06:00:51.747Z,18.77
2018-02-02T06:03:23.162Z,18.80
2018-02-02T06:05:53.849Z,18.95
2018-02-02T06:08:24.834Z,17.16
2018-02-02T06:10:55.279Z,19.64
2018-02-02T06:13:25.899Z,17.05
2018-02-02T06:15:56.702Z,18.15
2018-02-02T06:18:27.359Z,18.52
2018-02-02T06:20:58.774Z,17.92
2018-02-02T06:23:29.644Z,17.90
2018-02-02T06:26:00.495Z,17.77
2018-02-02T06:28:32.020Z,17.82
2018-02-02T06:31:02.836Z,18.37
2018-02-02T06:33:33.995Z,24.12
2018-02-02T06:36:04.762Z,31.55
2018-02-02T06:38:35.316Z,42.50
2018-02-02T06:41:06.504Z,36.85
2018-02-02T06:43:36.989Z,34.25
2018-02-02T06:46:07.494Z,39.32
2018-02-02T06:48:37.970Z,36.53
2018-02-02T06:51:08.825Z,45.30
2018-02-02T06:53:39.346Z,48.60
2018-02-02T06:56:10.361Z,45.50
2018-02-02T06:58:39.691Z,53.42
2018-02-02T07:01:11.056Z,49.17
2018-02-02T07:03:41.903Z,51.65
2018-02-02T07:06:12.714Z,44.28
2018-02-02T07:08:43.268Z,46.76
2018-02-02T07:11:13.848Z,83.22
2018-02-02T07:13:44.740Z,74.10
2018-02-02T07:16:14.945Z,63.94
2018-02-02T07:18:45.455Z,54.28
2018-02-02T07:21:18.369Z,59.36
2018-02-02T07:23:48.171Z,52.92
2018-02-02T07:26:18.796Z,78.62
2018-02-02T07:28:49.663Z,89.82
2018-02-02T07:31:20.417Z,71.88
2018-02-02T07:33:52.063Z,61.14
2018-02-02T07:36:22.871Z,59.38
2018-02-02T07:38:53.735Z,54.60
2018-02-02T07:41:24.607Z,50.00
2018-02-02T07:43:55.547Z,38.97
2018-02-02T07:46:26.848Z,37.80
2018-02-02T07:48:57.443Z,35.00
2018-02-02T07:51:28.830Z,29.02
2018-02-02T07:53:59.726Z,26.42
2018-02-02T07:56:30.960Z,25.50
2018-02-02T07:59:01.573Z,25.08
2018-02-02T08:01:32.072Z,24.15
2018-02-02T08:04:02.859Z,24.25
2018-02-02T08:06:34.167Z,25.37
2018-02-02T08:09:04.479Z,23.65
2018-02-02T08:11:35.843Z,22.80
2018-02-02T08:14:06.864Z,26.08
2018-02-02T08:16:37.708Z,24.45
2018-02-02T08:19:08.793Z,22.95
2018-02-02T08:21:39.630Z,22.50
2018-02-02T08:24:10.986Z,21.46
2018-02-02T08:26:43.198Z,24.19
2018-02-02T08:29:12.494Z,29.63
2018-02-02T08:31:41.551Z,24.67
2018-02-02T08:34:12.428Z,22.22
2018-02-02T08:36:43.766Z,20.74
2018-02-02T08:39:14.584Z,21.12
2018-02-02T08:41:45.940Z,19.74
2018-02-02T08:44:16.788Z,24.90
2018-02-02T08:46:47.757Z,21.62
2018-02-02T08:49:18.587Z,23.90
2018-02-02T08:51:49.991Z,28.26
2018-02-02T08:54:20.781Z,53.67
2018-02-02T08:56:53.633Z,28.92
2018-02-02T08:59:23.259Z,25.65
2018-02-02T09:01:58.810Z,25.38
2018-02-02T09:04:28.677Z,27.27
2018-02-02T09:06:57.753Z,23.05
2018-02-02T09:09:26.917Z,25.42
2018-02-02T09:11:57.497Z,21.32
2018-02-02T09:14:27.875Z,25.62
2018-02-02T09:16:58.886Z,24.80
2018-02-02T09:19:30.005Z,24.98
2018-02-02T09:21:59.649Z,20.65
2018-02-02T09:24:34.478Z,21.45
2018-02-02T09:27:02.587Z,24.50
2018-02-02T09:29:33.807Z,26.14
2018-02-02T09:32:05.382Z,17.12
2018-02-02T09:34:35.891Z,16.48
2018-02-02T09:37:06.784Z,27.95
2018-02-02T09:39:38.076Z,19.02
2018-02-02T09:42:08.908Z,23.25
2018-02-02T09:44:39.773Z,17.08
2018-02-02T09:47:10.478Z,18.27
2018-02-02T09:49:41.960Z,23.12
2018-02-02T09:52:12.864Z,19.98
2018-02-02T09:54:43.713Z,18.17
2018-02-02T09:57:14.579Z,15.95
2018-02-02T09:59:46.090Z,19.60
2018-02-02T10:02:16.899Z,22.73
2018-02-02T10:04:47.807Z,27.45
2018-02-02T10:07:18.735Z,21.58
2018-02-02T10:09:50.291Z,16.75
2018-02-02T10:12:20.517Z,21.20
2018-02-02T10:14:51.111Z,23.20
2018-02-02T10:17:21.755Z,17.35
2018-02-02T10:19:53.113Z,21.82
2018-02-02T10:22:23.935Z,27.90
2018-02-02T10:24:54.849Z,19.58
2018-02-02T10:27:25.740Z,27.33
2018-02-02T10:29:56.621Z,19.58
2018-02-02T10:32:27.965Z,15.68
2018-02-02T10:34:58.887Z,15.88
2018-02-02T10:37:30.039Z,13.70
2018-02-02T10:40:01.106Z,10.23
2018-02-02T10:42:32.633Z,10.13
2018-02-02T10:45:02.543Z,9.05
2018-02-02T10:47:32.994Z,9.70
2018-02-02T10:50:04.528Z,8.43
2018-02-02T10:52:35.055Z,8.82
2018-02-02T10:55:05.921Z,11.52
2018-02-02T10:57:36.733Z,13.13
2018-02-02T11:00:07.653Z,12.82
2018-02-02T11:02:43.914Z,11.02
2018-02-02T11:05:12.982Z,11.48
2018-02-02T11:07:42.194Z,12.20
2018-02-02T11:10:11.747Z,13.45
2018-02-02T11:12:42.315Z,10.26
2018-02-02T11:15:12.675Z,9.90
2018-02-02T11:17:43.622Z,10.50
2018-02-02T11:20:14.115Z,8.08
2018-02-02T11:22:44.940Z,10.70
2018-02-02T11:25:15.861Z,10.70
2018-02-02T11:27:47.135Z,9.48
2018-02-02T11:30:17.479Z,6.36
2018-02-02T11:32:48.176Z,9.65
2018-02-02T11:35:18.781Z,8.77
2018-02-02T11:37:50.181Z,8.26
2018-02-02T11:40:20.854Z,9.10
2018-02-02T11:42:51.808Z,6.90
2018-02-02T11:45:22.279Z,9.56
2018-02-02T11:47:53.360Z,8.65
2018-02-02T11:50:23.907Z,10.95
2018-02-02T11:52:54.800Z,7.57
2018-02-02T11:55:25.583Z,7.68
2018-02-02T11:57:56.043Z,8.43
2018-02-02T12:00:26.742Z,7.12
2018-02-02T12:02:57.615Z,11.32
2018-02-02T12:05:28.716Z,8.70
2018-02-02T12:07:59.585Z,7.65
2018-02-02T12:10:30.838Z,8.52
2018-02-02T12:13:02.319Z,15.22
2018-02-02T12:15:32.955Z,7.37
2018-02-02T12:18:03.796Z,9.63
2018-02-02T12:20:34.143Z,6.87
2018-02-02T12:23:09.615Z,6.10
2018-02-02T12:28:54.185Z,5.50
2018-02-02T12:34:35.900Z,4.70
2018-02-02T12:37:04.607Z,6.63
2018-02-02T12:39:33.599Z,5.30
2018-02-02T12:42:02.595Z,3.90
2018-02-02T12:44:31.703Z,5.30
2018-02-02T12:47:00.775Z,3.97
2018-02-02T12:49:32.383Z,5.60
2018-02-02T12:52:01.471Z,3.08
2018-02-02T12:54:30.536Z,4.55
2018-02-02T12:57:00.051Z,3.40
2018-02-02T12:59:28.872Z,5.73
2018-02-02T13:01:57.813Z,6.47
2018-02-02T13:04:27.016Z,3.70
2018-02-02T13:06:56.181Z,4.43
2018-02-02T13:09:24.957Z,5.77
2018-02-02T13:11:53.898Z,4.77
2018-02-02T13:14:23.081Z,5.70
2018-02-02T13:16:51.870Z,4.40
2018-02-02T13:19:20.770Z,4.87
2018-02-02T13:21:49.653Z,3.23
2018-02-02T13:24:18.734Z,3.47
2018-02-02T13:26:47.992Z,4.93
2018-02-02T13:29:16.739Z,4.20
2018-02-02T13:31:45.529Z,5.33
2018-02-02T13:34:14.259Z,5.97
2018-02-02T13:36:43.264Z,3.97
2018-02-02T13:39:12.084Z,5.23
2018-02-02T13:41:41.779Z,3.10
2018-02-02T13:44:10.921Z,7.53
2018-02-02T13:46:39.943Z,7.07
2018-02-02T13:49:08.812Z,14.37
2018-02-02T13:51:37.743Z,15.27
2018-02-02T13:54:06.819Z,8.10
2018-02-02T13:56:35.754Z,11.83
2018-02-02T13:59:04.713Z,21.97
2018-02-02T14:01:33.682Z,42.13
2018-02-02T14:04:03.428Z,27.70
2018-02-02T14:06:32.494Z,7.05
2018-02-02T14:09:01.584Z,6.07
2018-02-02T14:11:30.716Z,6.10
2018-02-02T14:13:59.830Z,18.58
2018-02-02T14:16:29.380Z,31.30
2018-02-02T14:18:58.495Z,11.18
2018-02-02T14:21:27.596Z,7.82
2018-02-02T14:23:56.687Z,7.62
2018-02-02T14:26:26.280Z,6.90
2018-02-02T14:28:55.383Z,7.10
2018-02-02T14:31:24.562Z,6.47
2018-02-02T14:33:53.764Z,7.78
2018-02-02T14:36:23.014Z,8.27
2018-02-02T14:38:52.496Z,6.93
2018-02-02T14:41:22.988Z,7.60
2018-02-02T14:43:53.835Z,7.40
2018-02-02T14:46:24.690Z,6.75
2018-02-02T14:48:55.494Z,5.72
2018-02-02T14:51:26.907Z,10.00
2018-02-02T14:53:57.776Z,9.23
2018-02-02T14:56:28.647Z,8.43
2018-02-02T14:58:59.112Z,8.52
2018-02-02T15:01:29.998Z,7.32
2018-02-02T15:04:01.447Z,7.64
2018-02-02T15:06:31.982Z,9.55
2018-02-02T15:09:02.879Z,9.18
2018-02-02T15:11:34.417Z,14.14
2018-02-02T15:14:04.836Z,14.68
2018-02-02T15:16:36.022Z,29.85
2018-02-02T15:19:06.758Z,12.40
2018-02-02T15:21:37.646Z,10.77
2018-02-02T15:24:08.422Z,8.70
2018-02-02T15:26:39.875Z,9.14
2018-02-02T15:29:10.676Z,8.43
2018-02-02T15:31:42.756Z,11.68
2018-02-02T15:34:13.237Z,11.48
2018-02-02T15:36:43.852Z,11.70
2018-02-02T15:39:14.343Z,11.88
2018-02-02T15:41:44.989Z,12.93
2018-02-02T15:44:15.820Z,10.90
2018-02-02T15:46:46.882Z,17.02
2018-02-02T15:49:18.144Z,36.84
2018-02-02T15:51:48.903Z,17.55
2018-02-02T15:54:19.468Z,17.80
2018-02-02T15:56:50.888Z,17.54
2018-02-02T15:59:21.508Z,13.80
2018-02-02T16:01:56.966Z,13.93
2018-02-02T16:04:26.224Z,23.30
2018-02-02T16:06:55.344Z,48.17
2018-02-02T16:09:25.577Z,28.94
2018-02-02T16:11:56.540Z,20.70
2018-02-02T16:14:27.228Z,77.90
2018-02-02T16:16:57.897Z,728.33
2018-02-02T16:19:28.496Z,302.70
2018-02-02T16:21:59.847Z,35.03
2018-02-02T16:24:30.400Z,30.86
2018-02-02T16:27:01.679Z,36.50
2018-02-02T16:29:32.296Z,44.38
2018-02-02T16:32:02.979Z,24.00
2018-02-02T16:34:33.888Z,21.02
2018-02-02T16:37:04.319Z,25.12
2018-02-02T16:39:35.716Z,26.92
2018-02-02T16:42:06.418Z,27.73
2018-02-02T16:44:37.764Z,24.62
2018-02-02T16:47:10.135Z,25.87
2018-02-02T16:49:40.479Z,29.98
2018-02-02T16:52:10.748Z,23.25
2018-02-02T16:54:41.558Z,25.70
2018-02-02T16:57:12.706Z,24.74
2018-02-02T16:59:43.207Z,29.95
2018-02-02T17:02:15.760Z,30.70
2018-02-02T17:04:46.159Z,34.70
2018-02-02T17:07:16.743Z,27.65
2018-02-02T17:09:47.871Z,24.17
2018-02-02T17:12:18.923Z,15.32
2018-02-02T17:14:49.757Z,21.00
2018-02-02T17:17:20.248Z,18.64
2018-02-02T17:19:50.980Z,43.87
2018-02-02T17:22:21.859Z,76.35
2018-02-02T17:24:53.611Z,307.12
2018-02-02T17:27:24.506Z,330.17
2018-02-02T17:29:54.999Z,156.35
2018-02-02T17:32:25.775Z,49.47
2018-02-02T17:34:56.722Z,38.35
2018-02-02T17:37:27.137Z,30.20
2018-02-02T17:39:58.486Z,39.46
2018-02-02T17:42:28.944Z,30.02
2018-02-02T17:44:59.827Z,25.52
2018-02-02T17:47:30.764Z,24.12
2018-02-02T17:50:02.127Z,27.82
2018-02-02T17:52:33.041Z,24.23
2018-02-02T17:55:03.892Z,22.58
2018-02-02T17:57:34.992Z,31.45
2018-02-02T18:00:05.431Z,18.18
2018-02-02T18:05:39.168Z,14.90
2018-02-02T18:08:10.431Z,21.23
2018-02-02T18:10:39.516Z,18.25
2018-02-02T18:13:08.643Z,20.42
2018-02-02T18:15:37.799Z,22.93
2018-02-02T18:18:06.710Z,51.07
2018-02-02T18:20:35.809Z,35.67
2018-02-02T18:23:04.832Z,25.50
2018-02-02T18:25:33.816Z,30.47
2018-02-02T18:28:02.619Z,32.20
2018-02-02T18:30:31.785Z,32.80
2018-02-02T18:33:00.715Z,28.83
2018-02-02T18:35:29.270Z,31.00
2018-02-02T18:37:58.672Z,34.03
2018-02-02T18:40:28.058Z,79.85
2018-02-02T18:42:57.286Z,60.95
2018-02-02T18:45:26.480Z,53.00
2018-02-02T18:47:55.585Z,36.17
2018-02-02T18:50:24.940Z,35.67
2018-02-02T18:52:54.379Z,31.33
2018-02-02T18:55:23.599Z,31.47
2018-02-02T18:57:53.621Z,33.40
2018-02-02T19:00:24.157Z,32.17
2018-02-02T19:02:54.865Z,36.33
2018-02-02T19:05:25.745Z,239.60
2018-02-02T19:07:56.888Z,620.20
2018-02-02T19:10:27.521Z,667.04
2018-02-02T19:12:57.941Z,551.03
2018-02-02T19:15:28.863Z,264.65
2018-02-02T19:17:59.716Z,102.12
2018-02-02T19:20:30.720Z,139.93
2018-02-02T19:23:01.547Z,232.02
2018-02-02T19:25:33.167Z,337.94
2018-02-02T19:28:03.528Z,429.84
2018-02-02T19:30:33.974Z,174.65
2018-02-02T19:33:04.691Z,148.73
2018-02-02T19:35:36.161Z,148.84
2018-02-02T19:38:06.690Z,104.35
2018-02-02T19:40:38.123Z,90.30
2018-02-02T19:43:08.852Z,92.72
2018-02-02T19:45:39.890Z,88.84
2018-02-02T19:48:10.490Z,116.14
2018-02-02T19:50:41.381Z,95.53
2018-02-02T19:53:11.967Z,86.93
2018-02-02T19:55:42.771Z,64.60
2018-02-02T19:58:13.845Z,62.95
2018-02-02T20:00:43.839Z,81.30
2018-02-02T20:03:14.606Z,96.07
2018-02-02T20:05:45.470Z,102.18
2018-02-02T20:08:16.438Z,103.60
2018-02-02T20:10:47.184Z,60.20
2018-02-02T20:13:17.431Z,72.94
2018-02-02T20:15:47.778Z,80.75
2018-02-02T20:18:19.000Z,97.36
2018-02-02T20:20:50.195Z,107.97
2018-02-02T20:23:20.807Z,101.32
2018-02-02T20:25:51.854Z,92.75
2018-02-02T20:28:21.079Z,111.90
2018-02-02T20:30:51.058Z,146.50
2018-02-02T20:33:20.179Z,157.50
2018-02-02T20:35:49.314Z,146.37
2018-02-02T20:38:18.156Z,114.55
2018-02-02T20:40:46.712Z,116.70
2018-02-02T20:43:15.792Z,221.02
2018-02-02T20:45:44.834Z,207.67
2018-02-02T20:48:14.230Z,183.10
2018-02-02T20:50:43.345Z,150.90
2018-02-02T20:53:12.139Z,142.13
2018-02-02T20:55:41.023Z,156.40
2018-02-02T20:58:10.035Z,209.30
2018-02-02T21:00:39.070Z,201.67
2018-02-02T21:03:08.126Z,185.40
2018-02-02T21:05:36.948Z,119.87
2018-02-02T21:08:05.808Z,131.03
2018-02-02T21:10:34.893Z,144.30
2018-02-02T21:13:03.796Z,150.63
2018-02-02T21:15:32.766Z,135.33
2018-02-02T21:18:01.756Z,161.10
2018-02-02T21:20:30.781Z,153.80
2018-02-02T21:23:00.001Z,139.57
2018-02-02T21:25:28.864Z,138.30
2018-02-02T21:27:57.765Z,145.17
2018-02-02T21:30:26.712Z,146.30
2018-02-02T21:32:55.856Z,131.13
2018-02-02T21:35:24.807Z,136.07
2018-02-02T21:37:53.671Z,135.87
2018-02-02T21:40:22.908Z,165.63
2018-02-02T21:42:51.889Z,183.37
2018-02-02T21:45:20.801Z,195.00
2018-02-02T21:47:49.811Z,181.67
2018-02-02T21:50:18.929Z,169.57
2018-02-02T21:52:47.812Z,161.63
2018-02-02T21:55:16.939Z,187.73
2018-02-02T21:57:45.775Z,225.57
2018-02-02T22:00:14.568Z,217.13
2018-02-02T22:02:43.718Z,235.93
2018-02-02T22:05:12.813Z,257.33
2018-02-02T22:07:41.922Z,308.27
2018-02-02T22:10:10.820Z,240.50
2018-02-02T22:12:39.827Z,254.53
2018-02-02T22:15:08.792Z,246.27
2018-02-02T22:17:37.869Z,203.87
2018-02-02T22:20:06.544Z,175.37
2018-02-02T22:22:35.515Z,135.10
2018-02-02T22:25:04.707Z,130.10
2018-02-02T22:27:33.668Z,116.17
2018-02-02T22:30:02.742Z,97.83
2018-02-02T22:32:31.701Z,111.63
2018-02-02T22:35:00.768Z,110.83
2018-02-02T22:37:29.708Z,95.60
2018-02-02T22:39:58.958Z,74.93
2018-02-02T22:42:27.740Z,62.17
2018-02-02T22:44:56.533Z,52.67
2018-02-02T22:47:25.494Z,60.42
2018-02-02T22:49:54.626Z,52.50
2018-02-02T22:52:23.813Z,60.47
2018-02-02T22:54:53.092Z,64.78
2018-02-02T22:57:21.926Z,53.40
2018-02-02T22:59:50.761Z,58.57
2018-02-02T23:02:19.788Z,55.27
2018-02-02T23:04:48.668Z,49.50
2018-02-02T23:07:17.728Z,41.93
2018-02-02T23:09:46.883Z,40.20
2018-02-02T23:12:15.808Z,37.73
2018-02-02T23:14:44.640Z,34.87
2018-02-02T23:17:13.837Z,36.10
2018-02-02T23:19:42.427Z,40.70
2018-02-02T23:22:11.488Z,39.70
2018-02-02T23:24:40.636Z,41.45
2018-02-02T23:27:09.721Z,46.95
2018-02-02T23:29:38.984Z,42.88
2018-02-02T23:32:08.206Z,39.55
2018-02-02T23:34:37.341Z,39.67
2018-02-02T23:37:06.317Z,37.50
2018-02-02T23:39:36.547Z,39.12
2018-02-02T23:42:07.018Z,34.50
2018-02-02T23:44:38.459Z,35.42
2018-02-02T23:47:10.192Z,42.75
2018-02-02T23:49:39.559Z,40.07
2018-02-02T23:52:10.023Z,37.32
2018-02-02T23:54:40.899Z,36.78
2018-02-02T23:57:11.732Z,42.47
2018-02-02T23:59:42.664Z,43.75
